DAL2458 KSAT-KDTW
Flight info
| Callsign | DAL2458 |
|---|---|
| Flight time | 2h 36m |
| Altitude | 35000 |
| Route | SNIDR2 BLUMS IAH J29 PXV WWODD HANBL3 |
| Aircraft | A320/M-SDE3FGHIRWY/LB1 |
Departure
| Time | 2026-04-21 15:20 |
|---|---|
| Airport | San Antonio International Airport (KSAT) |
Arrival
| Time | 2026-04-21 17:56 |
|---|---|
| Airport | Detroit Metropolitan Wayne County Airport (KDTW) |
| Time | Latitude | Longitude | Altitude | Speed | Heading |
|---|---|---|---|---|---|
| 2026-04-21 15:14 | 29.54036 | -98.48434 | 798 ft | 0 kts | 308° |
| 2026-04-21 15:17 | 29.54053 | -98.48460 | 798 ft | 9 kts | 308° |
| 2026-04-21 15:18 | 29.54090 | -98.48507 | 798 ft | 6 kts | 312° |
| 2026-04-21 15:18 | 29.54101 | -98.48521 | 798 ft | 0 kts | 312° |
| 2026-04-21 15:18 | 29.54122 | -98.48527 | 798 ft | 7 kts | 1° |
| 2026-04-21 15:18 | 29.54168 | -98.48487 | 798 ft | 11 kts | 43° |
| 2026-04-21 15:19 | 29.54167 | -98.48417 | 798 ft | 6 kts | 126° |
| 2026-04-21 15:19 | 29.54165 | -98.48415 | 798 ft | 4 kts | 128° |
| 2026-04-21 15:19 | 29.53896 | -98.48062 | 798 ft | 110 kts | 131° |
| 2026-04-21 15:19 | 29.53211 | -98.47182 | 1002 ft | 171 kts | 131° |
| 2026-04-21 15:20 | 29.52400 | -98.46138 | 2071 ft | 182 kts | 132° |
| 2026-04-21 15:20 | 29.51513 | -98.44982 | 2829 ft | 206 kts | 130° |
| 2026-04-21 15:20 | 29.50934 | -98.43382 | 3565 ft | 241 kts | 97° |
| 2026-04-21 15:20 | 29.51339 | -98.41386 | 4380 ft | 273 kts | 65° |
| 2026-04-21 15:21 | 29.52387 | -98.39502 | 5568 ft | 286 kts | 56° |
| 2026-04-21 15:21 | 29.53649 | -98.37695 | 6801 ft | 294 kts | 52° |
| 2026-04-21 15:21 | 29.54997 | -98.35889 | 7981 ft | 301 kts | 50° |
| 2026-04-21 15:21 | 29.56370 | -98.34048 | 9185 ft | 307 kts | 50° |
| 2026-04-21 15:22 | 29.57754 | -98.32141 | 10343 ft | 316 kts | 50° |
| 2026-04-21 15:22 | 29.59195 | -98.30104 | 10952 ft | 342 kts | 50° |
| 2026-04-21 15:22 | 29.60718 | -98.27897 | 11497 ft | 366 kts | 52° |
| 2026-04-21 15:22 | 29.62051 | -98.25348 | 12339 ft | 378 kts | 64° |
| 2026-04-21 15:23 | 29.62968 | -98.22491 | 13329 ft | 385 kts | 75° |
| 2026-04-21 15:23 | 29.63432 | -98.19435 | 14292 ft | 391 kts | 84° |
| 2026-04-21 15:23 | 29.63721 | -98.16302 | 15182 ft | 397 kts | 83° |
| 2026-04-21 15:23 | 29.64017 | -98.13125 | 16054 ft | 402 kts | 83° |
| 2026-04-21 15:24 | 29.64313 | -98.09929 | 16920 ft | 408 kts | 83° |
| 2026-04-21 15:24 | 29.64614 | -98.06664 | 17777 ft | 414 kts | 83° |
| 2026-04-21 15:24 | 29.64920 | -98.03348 | 18620 ft | 419 kts | 83° |
| 2026-04-21 15:24 | 29.65098 | -97.99967 | 19325 ft | 426 kts | 89° |
| 2026-04-21 15:25 | 29.65147 | -97.96534 | 20029 ft | 433 kts | 89° |
| 2026-04-21 15:25 | 29.65196 | -97.93044 | 20693 ft | 440 kts | 88° |
| 2026-04-21 15:25 | 29.65243 | -97.89502 | 21385 ft | 446 kts | 88° |
| 2026-04-21 15:25 | 29.65289 | -97.85960 | 22044 ft | 453 kts | 88° |
| 2026-04-21 15:26 | 29.65338 | -97.82305 | 22708 ft | 460 kts | 88° |
| 2026-04-21 15:26 | 29.65390 | -97.78605 | 23377 ft | 466 kts | 88° |
| 2026-04-21 15:26 | 29.65440 | -97.74856 | 23961 ft | 472 kts | 88° |
| 2026-04-21 15:26 | 29.65483 | -97.71052 | 24481 ft | 477 kts | 88° |
| 2026-04-21 15:27 | 29.65521 | -97.67217 | 24999 ft | 482 kts | 88° |
| 2026-04-21 15:27 | 29.65555 | -97.63355 | 25518 ft | 486 kts | 89° |
| 2026-04-21 15:27 | 29.65590 | -97.59451 | 26036 ft | 490 kts | 89° |
| 2026-04-21 15:27 | 29.65625 | -97.55523 | 26529 ft | 494 kts | 89° |
| 2026-04-21 15:28 | 29.65659 | -97.51538 | 27011 ft | 498 kts | 89° |
| 2026-04-21 15:28 | 29.65694 | -97.47543 | 27476 ft | 502 kts | 89° |
| 2026-04-21 15:28 | 29.65730 | -97.43572 | 27936 ft | 506 kts | 89° |
| 2026-04-21 15:28 | 29.65768 | -97.39506 | 28399 ft | 510 kts | 89° |
| 2026-04-21 15:29 | 29.65808 | -97.35410 | 28846 ft | 513 kts | 89° |
| 2026-04-21 15:29 | 29.65844 | -97.31290 | 29265 ft | 517 kts | 89° |
| 2026-04-21 15:29 | 29.65877 | -97.27144 | 29667 ft | 521 kts | 89° |
| 2026-04-21 15:29 | 29.65909 | -97.22964 | 30048 ft | 524 kts | 89° |
| 2026-04-21 15:30 | 29.65938 | -97.18754 | 30362 ft | 527 kts | 89° |
| 2026-04-21 15:30 | 29.65960 | -97.14525 | 30626 ft | 530 kts | 89° |
| 2026-04-21 15:30 | 29.65981 | -97.10280 | 30905 ft | 531 kts | 89° |
| 2026-04-21 15:30 | 29.66003 | -97.06037 | 31260 ft | 531 kts | 89° |
| 2026-04-21 15:31 | 29.66025 | -97.01852 | 31633 ft | 530 kts | 89° |
| 2026-04-21 15:31 | 29.66049 | -96.97615 | 32007 ft | 530 kts | 89° |
| 2026-04-21 15:31 | 29.66074 | -96.93380 | 32378 ft | 530 kts | 89° |
| 2026-04-21 15:31 | 29.66095 | -96.89143 | 32785 ft | 529 kts | 89° |
| 2026-04-21 15:32 | 29.66115 | -96.84911 | 33204 ft | 529 kts | 89° |
| 2026-04-21 15:32 | 29.66135 | -96.80685 | 33607 ft | 529 kts | 89° |
| 2026-04-21 15:32 | 29.66157 | -96.76460 | 34021 ft | 529 kts | 89° |
| 2026-04-21 15:32 | 29.66177 | -96.72231 | 34397 ft | 528 kts | 89° |
| 2026-04-21 15:33 | 29.66194 | -96.68019 | 34786 ft | 527 kts | 89° |
| 2026-04-21 15:33 | 29.66205 | -96.63801 | 35079 ft | 527 kts | 89° |
| 2026-04-21 15:33 | 29.66221 | -96.55407 | 35195 ft | 523 kts | 89° |
| 2026-04-21 15:34 | 29.66229 | -96.47059 | 35229 ft | 522 kts | 89° |
| 2026-04-21 15:34 | 29.66219 | -96.38703 | 35257 ft | 523 kts | 90° |
| 2026-04-21 15:35 | 29.66204 | -96.30351 | 35257 ft | 522 kts | 90° |
| 2026-04-21 15:35 | 29.66184 | -96.22004 | 35249 ft | 522 kts | 89° |
| 2026-04-21 15:36 | 29.66167 | -96.13663 | 35224 ft | 522 kts | 90° |
| 2026-04-21 15:36 | 29.66133 | -96.05317 | 35250 ft | 522 kts | 90° |
| 2026-04-21 15:37 | 29.66092 | -95.96985 | 35272 ft | 521 kts | 90° |
| 2026-04-21 15:37 | 29.66058 | -95.88701 | 35283 ft | 521 kts | 90° |
| 2026-04-21 15:38 | 29.66439 | -95.80399 | 35253 ft | 519 kts | 77° |
| 2026-04-21 15:38 | 29.68734 | -95.72619 | 35256 ft | 510 kts | 58° |
| 2026-04-21 15:39 | 29.72751 | -95.66028 | 35250 ft | 500 kts | 44° |
| 2026-04-21 15:39 | 29.77140 | -95.60056 | 35244 ft | 500 kts | 44° |
| 2026-04-21 15:40 | 29.81621 | -95.53915 | 35241 ft | 501 kts | 44° |
| 2026-04-21 15:40 | 29.86093 | -95.47780 | 35259 ft | 501 kts | 44° |
| 2026-04-21 15:41 | 29.90562 | -95.41645 | 35265 ft | 501 kts | 44° |
| 2026-04-21 15:41 | 29.95141 | -95.35589 | 35264 ft | 495 kts | 37° |
| 2026-04-21 15:42 | 30.00560 | -95.30892 | 35264 ft | 484 kts | 26° |
| 2026-04-21 15:42 | 30.06199 | -95.26640 | 35259 ft | 485 kts | 26° |
| 2026-04-21 15:43 | 30.11836 | -95.22362 | 35253 ft | 485 kts | 26° |
| 2026-04-21 15:43 | 30.17478 | -95.18068 | 35246 ft | 486 kts | 26° |
| 2026-04-21 15:44 | 30.23135 | -95.13774 | 35252 ft | 486 kts | 26° |
| 2026-04-21 15:44 | 30.28761 | -95.09502 | 35254 ft | 487 kts | 26° |
| 2026-04-21 15:45 | 30.34422 | -95.05190 | 35253 ft | 488 kts | 26° |
| 2026-04-21 15:45 | 30.40036 | -95.00900 | 35250 ft | 488 kts | 26° |
| 2026-04-21 15:46 | 30.45775 | -94.96510 | 35252 ft | 489 kts | 26° |
| 2026-04-21 15:46 | 30.51458 | -94.92156 | 35253 ft | 490 kts | 26° |
| 2026-04-21 15:47 | 30.57111 | -94.87813 | 35254 ft | 490 kts | 26° |
| 2026-04-21 15:47 | 30.62798 | -94.83444 | 35262 ft | 491 kts | 26° |
| 2026-04-21 15:48 | 30.68500 | -94.79071 | 35262 ft | 491 kts | 26° |
| 2026-04-21 15:48 | 30.74209 | -94.74689 | 35259 ft | 492 kts | 26° |
| 2026-04-21 15:49 | 30.79913 | -94.70295 | 35266 ft | 492 kts | 26° |
| 2026-04-21 15:49 | 30.85621 | -94.65880 | 35265 ft | 492 kts | 26° |
| 2026-04-21 15:50 | 30.91316 | -94.61464 | 35267 ft | 492 kts | 26° |
| 2026-04-21 15:50 | 30.97016 | -94.57049 | 35273 ft | 492 kts | 26° |
| 2026-04-21 15:51 | 31.01756 | -94.53379 | 35280 ft | 492 kts | 26° |
| 2026-04-21 15:51 | 31.07463 | -94.48950 | 35285 ft | 493 kts | 26° |
| 2026-04-21 15:52 | 31.14090 | -94.43795 | 35293 ft | 492 kts | 26° |
| 2026-04-21 15:52 | 31.18862 | -94.40074 | 35294 ft | 492 kts | 26° |
| 2026-04-21 15:53 | 31.24550 | -94.35640 | 35295 ft | 492 kts | 26° |
| 2026-04-21 15:53 | 31.30243 | -94.31193 | 35297 ft | 491 kts | 27° |
| 2026-04-21 15:54 | 31.35925 | -94.26751 | 35309 ft | 491 kts | 27° |
| 2026-04-21 15:54 | 31.41565 | -94.22345 | 35311 ft | 490 kts | 27° |
| 2026-04-21 15:55 | 31.47225 | -94.17911 | 35320 ft | 490 kts | 28° |
| 2026-04-21 15:55 | 31.52824 | -94.13508 | 35321 ft | 489 kts | 28° |
| 2026-04-21 15:56 | 31.57519 | -94.09803 | 35319 ft | 488 kts | 28° |
| 2026-04-21 15:56 | 31.57639 | -94.09708 | 35322 ft | 488 kts | 28° |
| 2026-04-21 15:57 | 31.63256 | -94.05284 | 35287 ft | 485 kts | 28° |
| 2026-04-21 15:57 | 31.68859 | -94.00866 | 35284 ft | 485 kts | 29° |
| 2026-04-21 15:58 | 31.74467 | -93.96439 | 35287 ft | 486 kts | 29° |
| 2026-04-21 15:58 | 31.80073 | -93.92006 | 35294 ft | 486 kts | 29° |
| 2026-04-21 15:59 | 31.85684 | -93.87553 | 35295 ft | 487 kts | 30° |
| 2026-04-21 15:59 | 31.91295 | -93.83097 | 35300 ft | 487 kts | 30° |
| 2026-04-21 16:00 | 31.96922 | -93.78630 | 35298 ft | 488 kts | 30° |
| 2026-04-21 16:00 | 32.02549 | -93.74150 | 35301 ft | 488 kts | 30° |
| 2026-04-21 16:01 | 32.08176 | -93.69655 | 35297 ft | 489 kts | 30° |
| 2026-04-21 16:01 | 32.13783 | -93.65178 | 35291 ft | 489 kts | 30° |
| 2026-04-21 16:02 | 32.19425 | -93.60666 | 35295 ft | 490 kts | 30° |
| 2026-04-21 16:02 | 32.25049 | -93.56161 | 35307 ft | 491 kts | 30° |
| 2026-04-21 16:03 | 32.30695 | -93.51631 | 35302 ft | 491 kts | 30° |
| 2026-04-21 16:03 | 32.36358 | -93.47067 | 35303 ft | 492 kts | 30° |
| 2026-04-21 16:04 | 32.42032 | -93.42499 | 35302 ft | 492 kts | 30° |
| 2026-04-21 16:04 | 32.47700 | -93.37937 | 35318 ft | 493 kts | 30° |
| 2026-04-21 16:05 | 32.53354 | -93.33382 | 35332 ft | 493 kts | 30° |
| 2026-04-21 16:05 | 32.59023 | -93.28801 | 35341 ft | 493 kts | 30° |
| 2026-04-21 16:06 | 32.64686 | -93.24210 | 35348 ft | 492 kts | 30° |
| 2026-04-21 16:06 | 32.70345 | -93.19611 | 35350 ft | 492 kts | 30° |
| 2026-04-21 16:07 | 32.75955 | -93.15066 | 35348 ft | 491 kts | 30° |
| 2026-04-21 16:07 | 32.81605 | -93.10471 | 35342 ft | 491 kts | 30° |
| 2026-04-21 16:08 | 32.90026 | -93.03602 | 35327 ft | 490 kts | 30° |
| 2026-04-21 16:09 | 32.95641 | -92.99006 | 35334 ft | 489 kts | 30° |
| 2026-04-21 16:09 | 33.01247 | -92.94423 | 35346 ft | 488 kts | 30° |
| 2026-04-21 16:10 | 33.06842 | -92.89849 | 35359 ft | 487 kts | 30° |
| 2026-04-21 16:10 | 33.12414 | -92.85272 | 35361 ft | 486 kts | 30° |
| 2026-04-21 16:11 | 33.17983 | -92.80685 | 35355 ft | 486 kts | 30° |
| 2026-04-21 16:11 | 33.23510 | -92.76112 | 35351 ft | 487 kts | 32° |
| 2026-04-21 16:12 | 33.27598 | -92.71399 | 35350 ft | 496 kts | 48° |
| 2026-04-21 16:12 | 33.32591 | -92.63817 | 35333 ft | 496 kts | 48° |
| 2026-04-21 16:13 | 33.36866 | -92.57333 | 35321 ft | 496 kts | 48° |
| 2026-04-21 16:13 | 33.41148 | -92.50849 | 35316 ft | 496 kts | 48° |
| 2026-04-21 16:14 | 33.45394 | -92.44411 | 35315 ft | 496 kts | 48° |
| 2026-04-21 16:14 | 33.49664 | -92.37896 | 35317 ft | 496 kts | 48° |
| 2026-04-21 16:15 | 33.53928 | -92.31376 | 35317 ft | 496 kts | 48° |
| 2026-04-21 16:15 | 33.58188 | -92.24858 | 35312 ft | 496 kts | 48° |
| 2026-04-21 16:16 | 33.62442 | -92.18335 | 35312 ft | 496 kts | 48° |
| 2026-04-21 16:16 | 33.66689 | -92.11815 | 35324 ft | 496 kts | 48° |
| 2026-04-21 16:17 | 33.70915 | -92.05315 | 35332 ft | 496 kts | 48° |
| 2026-04-21 16:17 | 33.75161 | -91.98765 | 35334 ft | 496 kts | 48° |
| 2026-04-21 16:18 | 33.79405 | -91.92213 | 35330 ft | 497 kts | 47° |
| 2026-04-21 16:18 | 33.83660 | -91.85634 | 35330 ft | 497 kts | 47° |
| 2026-04-21 16:19 | 33.87881 | -91.79083 | 35322 ft | 498 kts | 47° |
| 2026-04-21 16:19 | 33.92136 | -91.72471 | 35317 ft | 499 kts | 47° |
| 2026-04-21 16:20 | 33.96384 | -91.65870 | 35310 ft | 499 kts | 47° |
| 2026-04-21 16:20 | 34.00637 | -91.59251 | 35313 ft | 499 kts | 47° |
| 2026-04-21 16:21 | 34.04887 | -91.52613 | 35317 ft | 500 kts | 47° |
| 2026-04-21 16:21 | 34.09109 | -91.46017 | 35327 ft | 500 kts | 47° |
| 2026-04-21 16:22 | 34.13347 | -91.39378 | 35329 ft | 500 kts | 47° |
| 2026-04-21 16:22 | 34.17591 | -91.32714 | 35335 ft | 500 kts | 47° |
| 2026-04-21 16:23 | 34.21817 | -91.26047 | 35335 ft | 500 kts | 47° |
| 2026-04-21 16:23 | 34.26046 | -91.19376 | 35335 ft | 500 kts | 47° |
| 2026-04-21 16:24 | 34.30283 | -91.12697 | 35336 ft | 499 kts | 47° |
| 2026-04-21 16:24 | 34.34481 | -91.06065 | 35335 ft | 499 kts | 46° |
| 2026-04-21 16:25 | 34.38695 | -90.99388 | 35336 ft | 499 kts | 46° |
| 2026-04-21 16:25 | 34.42909 | -90.92700 | 35337 ft | 499 kts | 46° |
| 2026-04-21 16:26 | 34.47118 | -90.85997 | 35341 ft | 499 kts | 46° |
| 2026-04-21 16:26 | 34.51321 | -90.79296 | 35339 ft | 500 kts | 46° |
| 2026-04-21 16:27 | 34.55525 | -90.72584 | 35331 ft | 500 kts | 46° |
| 2026-04-21 16:27 | 34.59727 | -90.65862 | 35336 ft | 500 kts | 46° |
| 2026-04-21 16:28 | 34.63929 | -90.59126 | 35334 ft | 500 kts | 46° |
| 2026-04-21 16:28 | 34.68129 | -90.52397 | 35343 ft | 500 kts | 46° |
| 2026-04-21 16:29 | 34.71617 | -90.46790 | 35343 ft | 500 kts | 46° |
| 2026-04-21 16:29 | 34.76515 | -90.38887 | 35346 ft | 500 kts | 46° |
| 2026-04-21 16:30 | 34.80701 | -90.32125 | 35346 ft | 500 kts | 46° |
| 2026-04-21 16:30 | 34.84889 | -90.25360 | 35346 ft | 500 kts | 46° |
| 2026-04-21 16:31 | 34.89049 | -90.18624 | 35339 ft | 500 kts | 46° |
| 2026-04-21 16:31 | 34.93223 | -90.11846 | 35347 ft | 500 kts | 46° |
| 2026-04-21 16:32 | 34.97394 | -90.05052 | 35353 ft | 500 kts | 46° |
| 2026-04-21 16:32 | 35.01873 | -89.98698 | 35360 ft | 486 kts | 33° |
| 2026-04-21 16:33 | 35.07302 | -89.94076 | 35352 ft | 472 kts | 22° |
| 2026-04-21 16:33 | 35.12950 | -89.89961 | 35347 ft | 472 kts | 22° |
| 2026-04-21 16:34 | 35.18589 | -89.85840 | 35343 ft | 472 kts | 22° |
| 2026-04-21 16:34 | 35.24215 | -89.81710 | 35338 ft | 471 kts | 22° |
| 2026-04-21 16:35 | 35.29832 | -89.77585 | 35337 ft | 471 kts | 22° |
| 2026-04-21 16:35 | 35.35440 | -89.73451 | 35342 ft | 470 kts | 22° |
| 2026-04-21 16:36 | 35.41037 | -89.69322 | 35343 ft | 469 kts | 22° |
| 2026-04-21 16:36 | 35.46622 | -89.65203 | 35345 ft | 468 kts | 22° |
| 2026-04-21 16:37 | 35.51250 | -89.61778 | 35347 ft | 467 kts | 22° |
| 2026-04-21 16:37 | 35.56799 | -89.57663 | 35348 ft | 466 kts | 22° |
| 2026-04-21 16:38 | 35.62351 | -89.53547 | 35352 ft | 465 kts | 22° |
| 2026-04-21 16:38 | 35.67877 | -89.49438 | 35355 ft | 464 kts | 22° |
| 2026-04-21 16:39 | 35.73384 | -89.45334 | 35353 ft | 462 kts | 22° |
| 2026-04-21 16:39 | 35.78886 | -89.41232 | 35357 ft | 461 kts | 22° |
| 2026-04-21 16:40 | 35.84340 | -89.37158 | 35354 ft | 460 kts | 22° |
| 2026-04-21 16:40 | 35.89817 | -89.33070 | 35357 ft | 459 kts | 22° |
| 2026-04-21 16:41 | 35.95278 | -89.28982 | 35354 ft | 458 kts | 22° |
| 2026-04-21 16:41 | 36.00713 | -89.24893 | 35358 ft | 457 kts | 22° |
| 2026-04-21 16:42 | 36.06119 | -89.20824 | 35352 ft | 456 kts | 22° |
| 2026-04-21 16:42 | 36.11535 | -89.16747 | 35355 ft | 455 kts | 22° |
| 2026-04-21 16:43 | 36.16944 | -89.12674 | 35328 ft | 454 kts | 22° |
| 2026-04-21 16:43 | 36.22340 | -89.08596 | 35330 ft | 454 kts | 22° |
| 2026-04-21 16:43 | 36.25032 | -89.06559 | 35173 ft | 453 kts | 22° |
| 2026-04-21 16:44 | 36.27746 | -89.04508 | 35235 ft | 461 kts | 24° |
| 2026-04-21 16:44 | 36.33313 | -89.00302 | 35283 ft | 472 kts | 24° |
| 2026-04-21 16:45 | 36.38935 | -88.96027 | 35284 ft | 474 kts | 25° |
| 2026-04-21 16:45 | 36.44523 | -88.91758 | 35285 ft | 473 kts | 25° |
| 2026-04-21 16:46 | 36.50134 | -88.87482 | 35285 ft | 472 kts | 25° |
| 2026-04-21 16:46 | 36.55701 | -88.83238 | 35286 ft | 472 kts | 25° |
| 2026-04-21 16:47 | 36.61294 | -88.78968 | 35291 ft | 472 kts | 25° |
| 2026-04-21 16:47 | 36.66889 | -88.74688 | 35295 ft | 471 kts | 25° |
| 2026-04-21 16:48 | 36.72482 | -88.70404 | 35300 ft | 471 kts | 25° |
| 2026-04-21 16:48 | 36.78038 | -88.66134 | 35303 ft | 471 kts | 26° |
| 2026-04-21 16:49 | 36.83616 | -88.61841 | 35297 ft | 470 kts | 26° |
| 2026-04-21 16:49 | 36.89181 | -88.57554 | 35297 ft | 469 kts | 26° |
| 2026-04-21 16:50 | 36.94748 | -88.53254 | 35298 ft | 469 kts | 26° |
| 2026-04-21 16:50 | 37.00271 | -88.48988 | 35297 ft | 468 kts | 26° |
| 2026-04-21 16:51 | 37.05821 | -88.44699 | 35293 ft | 468 kts | 27° |
| 2026-04-21 16:51 | 37.11357 | -88.40395 | 35289 ft | 467 kts | 27° |
| 2026-04-21 16:52 | 37.16878 | -88.36094 | 35289 ft | 467 kts | 27° |
| 2026-04-21 16:52 | 37.22363 | -88.31826 | 35293 ft | 467 kts | 27° |
| 2026-04-21 16:53 | 37.27887 | -88.27516 | 35293 ft | 467 kts | 27° |
| 2026-04-21 16:53 | 37.33400 | -88.23204 | 35294 ft | 467 kts | 27° |
| 2026-04-21 16:54 | 37.38921 | -88.18888 | 35291 ft | 467 kts | 27° |
| 2026-04-21 16:54 | 37.44441 | -88.14563 | 35289 ft | 467 kts | 27° |
| 2026-04-21 16:55 | 37.49950 | -88.10224 | 35277 ft | 467 kts | 27° |
| 2026-04-21 16:55 | 37.55439 | -88.05904 | 35279 ft | 467 kts | 27° |
| 2026-04-21 16:56 | 37.60957 | -88.01556 | 35282 ft | 467 kts | 27° |
| 2026-04-21 16:56 | 37.66468 | -87.97194 | 35282 ft | 468 kts | 27° |
| 2026-04-21 16:57 | 37.71985 | -87.92826 | 35282 ft | 467 kts | 27° |
| 2026-04-21 16:57 | 37.77499 | -87.88455 | 35283 ft | 467 kts | 27° |
| 2026-04-21 16:58 | 37.82971 | -87.84111 | 35289 ft | 467 kts | 27° |
| 2026-04-21 16:58 | 37.88469 | -87.79730 | 35288 ft | 467 kts | 27° |
| 2026-04-21 16:59 | 37.93979 | -87.75360 | 35285 ft | 466 kts | 26° |
| 2026-04-21 16:59 | 37.99601 | -87.71280 | 35274 ft | 464 kts | 23° |
| 2026-04-21 17:00 | 38.05282 | -87.67407 | 35259 ft | 463 kts | 22° |
| 2026-04-21 17:00 | 38.09987 | -87.64158 | 35263 ft | 464 kts | 23° |
| 2026-04-21 17:01 | 38.16546 | -87.59518 | 35261 ft | 464 kts | 23° |
| 2026-04-21 17:01 | 38.22175 | -87.55503 | 35252 ft | 464 kts | 23° |
| 2026-04-21 17:02 | 38.27810 | -87.51486 | 35256 ft | 463 kts | 23° |
| 2026-04-21 17:02 | 38.33448 | -87.47467 | 35254 ft | 463 kts | 23° |
| 2026-04-21 17:03 | 38.39035 | -87.43478 | 35252 ft | 463 kts | 23° |
| 2026-04-21 17:03 | 38.44659 | -87.39457 | 35251 ft | 463 kts | 23° |
| 2026-04-21 17:04 | 38.50280 | -87.35431 | 35248 ft | 463 kts | 23° |
| 2026-04-21 17:04 | 38.55898 | -87.31397 | 35245 ft | 463 kts | 23° |
| 2026-04-21 17:05 | 38.61514 | -87.27358 | 35234 ft | 463 kts | 23° |
| 2026-04-21 17:05 | 38.64296 | -87.25349 | 36054 ft | 446 kts | 21° |
| 2026-04-21 17:05 | 38.66937 | -87.23415 | 36617 ft | 435 kts | 21° |
| 2026-04-21 17:05 | 38.69547 | -87.21521 | 36497 ft | 429 kts | 20° |
| 2026-04-21 17:06 | 38.72143 | -87.19654 | 36304 ft | 426 kts | 20° |
| 2026-04-21 17:06 | 38.74730 | -87.17801 | 36106 ft | 424 kts | 20° |
| 2026-04-21 17:06 | 38.77301 | -87.15957 | 35905 ft | 424 kts | 20° |
| 2026-04-21 17:06 | 38.79874 | -87.14106 | 35704 ft | 423 kts | 20° |
| 2026-04-21 17:07 | 38.81577 | -87.12877 | 35575 ft | 423 kts | 21° |
| 2026-04-21 17:07 | 38.84997 | -87.10398 | 35321 ft | 422 kts | 21° |
| 2026-04-21 17:07 | 38.87555 | -87.08542 | 35183 ft | 421 kts | 21° |
| 2026-04-21 17:08 | 38.92629 | -87.04860 | 35214 ft | 422 kts | 21° |
| 2026-04-21 17:08 | 38.97745 | -87.01142 | 35206 ft | 422 kts | 21° |
| 2026-04-21 17:09 | 39.05413 | -86.95546 | 35203 ft | 423 kts | 21° |
| 2026-04-21 17:09 | 39.10529 | -86.91801 | 35200 ft | 423 kts | 21° |
| 2026-04-21 17:10 | 39.15643 | -86.88059 | 35203 ft | 423 kts | 21° |
| 2026-04-21 17:10 | 39.20768 | -86.84313 | 35201 ft | 423 kts | 21° |
| 2026-04-21 17:11 | 39.25878 | -86.80557 | 35206 ft | 423 kts | 21° |
| 2026-04-21 17:11 | 39.30995 | -86.76785 | 35202 ft | 423 kts | 21° |
| 2026-04-21 17:12 | 39.36105 | -86.73017 | 35207 ft | 423 kts | 21° |
| 2026-04-21 17:12 | 39.41221 | -86.69244 | 35194 ft | 423 kts | 21° |
| 2026-04-21 17:13 | 39.46330 | -86.65470 | 35200 ft | 423 kts | 21° |
| 2026-04-21 17:13 | 39.51441 | -86.61688 | 35192 ft | 423 kts | 22° |
| 2026-04-21 17:14 | 39.56545 | -86.57904 | 35196 ft | 423 kts | 22° |
| 2026-04-21 17:14 | 39.61661 | -86.54097 | 35189 ft | 423 kts | 22° |
| 2026-04-21 17:15 | 39.66776 | -86.50291 | 35192 ft | 423 kts | 22° |
| 2026-04-21 17:15 | 39.71887 | -86.46480 | 35179 ft | 423 kts | 22° |
| 2026-04-21 17:16 | 39.76967 | -86.42684 | 35182 ft | 423 kts | 22° |
| 2026-04-21 17:16 | 39.82083 | -86.38855 | 35176 ft | 424 kts | 22° |
| 2026-04-21 17:17 | 39.87147 | -86.34892 | 35180 ft | 430 kts | 28° |
| 2026-04-21 17:17 | 39.91799 | -86.29867 | 35176 ft | 435 kts | 32° |
| 2026-04-21 17:18 | 39.96402 | -86.24814 | 35172 ft | 435 kts | 32° |
| 2026-04-21 17:18 | 40.01030 | -86.19731 | 35167 ft | 435 kts | 32° |
| 2026-04-21 17:19 | 40.05666 | -86.14639 | 35172 ft | 435 kts | 32° |
| 2026-04-21 17:19 | 40.10322 | -86.09584 | 35169 ft | 435 kts | 31° |
| 2026-04-21 17:20 | 40.15028 | -86.04636 | 35173 ft | 434 kts | 30° |
| 2026-04-21 17:20 | 40.19746 | -85.99689 | 35161 ft | 435 kts | 31° |
| 2026-04-21 17:21 | 40.24450 | -85.94714 | 35044 ft | 435 kts | 31° |
| 2026-04-21 17:21 | 40.29126 | -85.89731 | 34991 ft | 436 kts | 31° |
| 2026-04-21 17:22 | 40.33821 | -85.84710 | 34952 ft | 436 kts | 31° |
| 2026-04-21 17:22 | 40.38524 | -85.79687 | 34920 ft | 436 kts | 31° |
| 2026-04-21 17:23 | 40.43230 | -85.74661 | 35157 ft | 436 kts | 31° |
| 2026-04-21 17:23 | 40.47931 | -85.69627 | 35149 ft | 437 kts | 31° |
| 2026-04-21 17:24 | 40.51842 | -85.65415 | 35155 ft | 437 kts | 31° |
| 2026-04-21 17:24 | 40.56547 | -85.60353 | 35138 ft | 437 kts | 31° |
| 2026-04-21 17:25 | 40.61258 | -85.55291 | 35146 ft | 437 kts | 31° |
| 2026-04-21 17:25 | 40.65960 | -85.50213 | 35108 ft | 438 kts | 31° |
| 2026-04-21 17:26 | 40.70629 | -85.45042 | 35113 ft | 439 kts | 33° |
| 2026-04-21 17:26 | 40.75205 | -85.39648 | 35103 ft | 441 kts | 34° |
| 2026-04-21 17:27 | 40.79751 | -85.34227 | 35109 ft | 441 kts | 34° |
| 2026-04-21 17:27 | 40.82013 | -85.31549 | 34714 ft | 441 kts | 34° |
| 2026-04-21 17:27 | 40.84327 | -85.28830 | 34853 ft | 450 kts | 35° |
| 2026-04-21 17:28 | 40.86674 | -85.26050 | 35055 ft | 458 kts | 38° |
| 2026-04-21 17:28 | 40.88868 | -85.22909 | 35120 ft | 470 kts | 43° |
| 2026-04-21 17:28 | 40.93165 | -85.16316 | 35113 ft | 474 kts | 44° |
| 2026-04-21 17:29 | 40.97454 | -85.09697 | 35100 ft | 474 kts | 44° |
| 2026-04-21 17:29 | 41.01757 | -85.03067 | 35116 ft | 474 kts | 44° |
| 2026-04-21 17:30 | 41.06033 | -84.96482 | 35093 ft | 474 kts | 44° |
| 2026-04-21 17:30 | 41.10332 | -84.89836 | 35083 ft | 475 kts | 44° |
| 2026-04-21 17:31 | 41.12483 | -84.86499 | 34239 ft | 476 kts | 44° |
| 2026-04-21 17:31 | 41.14647 | -84.83142 | 32641 ft | 477 kts | 44° |
| 2026-04-21 17:31 | 41.16817 | -84.79791 | 30518 ft | 479 kts | 44° |
| 2026-04-21 17:31 | 41.19069 | -84.76523 | 28990 ft | 476 kts | 41° |
| 2026-04-21 17:32 | 41.21360 | -84.73383 | 28081 ft | 469 kts | 40° |
| 2026-04-21 17:32 | 41.23644 | -84.70323 | 26052 ft | 465 kts | 40° |
| 2026-04-21 17:32 | 41.25927 | -84.67299 | 24132 ft | 461 kts | 40° |
| 2026-04-21 17:32 | 41.28160 | -84.64322 | 22775 ft | 446 kts | 40° |
| 2026-04-21 17:33 | 41.30266 | -84.61470 | 22039 ft | 419 kts | 40° |
| 2026-04-21 17:33 | 41.32236 | -84.58765 | 21673 ft | 398 kts | 40° |
| 2026-04-21 17:33 | 41.34147 | -84.56140 | 21412 ft | 393 kts | 40° |
| 2026-04-21 17:33 | 41.36042 | -84.53538 | 21159 ft | 390 kts | 40° |
| 2026-04-21 17:34 | 41.37931 | -84.50943 | 20922 ft | 389 kts | 40° |
| 2026-04-21 17:34 | 41.39813 | -84.48358 | 20664 ft | 387 kts | 40° |
| 2026-04-21 17:34 | 41.41660 | -84.45827 | 20414 ft | 385 kts | 40° |
| 2026-04-21 17:34 | 41.43549 | -84.43314 | 20174 ft | 381 kts | 36° |
| 2026-04-21 17:35 | 41.45632 | -84.41212 | 19927 ft | 372 kts | 26° |
| 2026-04-21 17:35 | 41.47817 | -84.39393 | 19687 ft | 370 kts | 26° |
| 2026-04-21 17:35 | 41.50032 | -84.37544 | 19442 ft | 369 kts | 26° |
| 2026-04-21 17:35 | 41.52175 | -84.35751 | 19211 ft | 368 kts | 26° |
| 2026-04-21 17:36 | 41.54334 | -84.33944 | 18956 ft | 366 kts | 26° |
| 2026-04-21 17:36 | 41.56517 | -84.32114 | 18714 ft | 365 kts | 26° |
| 2026-04-21 17:36 | 41.58633 | -84.30336 | 18479 ft | 363 kts | 25° |
| 2026-04-21 17:36 | 41.60766 | -84.28541 | 18229 ft | 362 kts | 25° |
| 2026-04-21 17:37 | 41.62896 | -84.26754 | 17956 ft | 361 kts | 25° |
| 2026-04-21 17:37 | 41.65021 | -84.24974 | 17695 ft | 361 kts | 25° |
| 2026-04-21 17:37 | 41.67144 | -84.23189 | 17441 ft | 360 kts | 25° |
| 2026-04-21 17:37 | 41.69262 | -84.21404 | 17167 ft | 360 kts | 25° |
| 2026-04-21 17:38 | 41.71376 | -84.19616 | 16978 ft | 359 kts | 25° |
| 2026-04-21 17:38 | 41.73444 | -84.17707 | 16987 ft | 365 kts | 32° |
| 2026-04-21 17:38 | 41.75289 | -84.15327 | 17017 ft | 371 kts | 40° |
| 2026-04-21 17:38 | 41.77044 | -84.12794 | 17011 ft | 371 kts | 40° |
| 2026-04-21 17:39 | 41.78800 | -84.10259 | 17013 ft | 371 kts | 40° |
| 2026-04-21 17:39 | 41.80557 | -84.07727 | 17012 ft | 371 kts | 40° |
| 2026-04-21 17:39 | 41.82309 | -84.05200 | 17015 ft | 371 kts | 40° |
| 2026-04-21 17:39 | 41.84069 | -84.02662 | 17009 ft | 371 kts | 40° |
| 2026-04-21 17:40 | 41.85824 | -84.00127 | 16994 ft | 371 kts | 40° |
| 2026-04-21 17:40 | 41.87579 | -83.97588 | 17010 ft | 371 kts | 40° |
| 2026-04-21 17:40 | 41.89331 | -83.95054 | 17008 ft | 371 kts | 40° |
| 2026-04-21 17:40 | 41.91072 | -83.92527 | 16468 ft | 365 kts | 40° |
| 2026-04-21 17:41 | 41.92794 | -83.90025 | 15299 ft | 365 kts | 40° |
| 2026-04-21 17:41 | 41.94512 | -83.87533 | 14405 ft | 362 kts | 40° |
| 2026-04-21 17:41 | 41.96229 | -83.85045 | 13935 ft | 363 kts | 40° |
| 2026-04-21 17:41 | 41.97944 | -83.82564 | 13361 ft | 362 kts | 40° |
| 2026-04-21 17:42 | 41.99658 | -83.80104 | 12828 ft | 360 kts | 40° |
| 2026-04-21 17:42 | 42.01347 | -83.77691 | 12307 ft | 358 kts | 40° |
| 2026-04-21 17:42 | 42.03056 | -83.75251 | 11788 ft | 358 kts | 41° |
| 2026-04-21 17:42 | 42.04203 | -83.73610 | 11424 ft | 356 kts | 41° |
| 2026-04-21 17:43 | 42.05389 | -83.71915 | 11292 ft | 346 kts | 41° |
| 2026-04-21 17:43 | 42.06999 | -83.69601 | 11164 ft | 331 kts | 41° |
| 2026-04-21 17:43 | 42.08500 | -83.67303 | 10905 ft | 326 kts | 49° |
| 2026-04-21 17:43 | 42.09625 | -83.64648 | 10663 ft | 329 kts | 64° |
| 2026-04-21 17:44 | 42.10287 | -83.61691 | 10431 ft | 331 kts | 76° |
| 2026-04-21 17:44 | 42.10782 | -83.58654 | 10187 ft | 330 kts | 76° |
| 2026-04-21 17:44 | 42.11279 | -83.55639 | 9949 ft | 329 kts | 76° |
| 2026-04-21 17:44 | 42.11771 | -83.52667 | 9811 ft | 328 kts | 76° |
| 2026-04-21 17:45 | 42.12265 | -83.49673 | 9677 ft | 328 kts | 76° |
| 2026-04-21 17:45 | 42.12758 | -83.46676 | 9546 ft | 327 kts | 76° |
| 2026-04-21 17:45 | 42.13251 | -83.43693 | 9425 ft | 326 kts | 76° |
| 2026-04-21 17:45 | 42.13743 | -83.40710 | 9296 ft | 326 kts | 76° |
| 2026-04-21 17:46 | 42.14231 | -83.37735 | 9157 ft | 324 kts | 76° |
| 2026-04-21 17:46 | 42.14719 | -83.34764 | 9071 ft | 324 kts | 76° |
| 2026-04-21 17:46 | 42.15200 | -83.31813 | 8941 ft | 324 kts | 76° |
| 2026-04-21 17:46 | 42.15681 | -83.28843 | 8772 ft | 322 kts | 76° |
| 2026-04-21 17:47 | 42.16390 | -83.26004 | 8601 ft | 318 kts | 61° |
| 2026-04-21 17:47 | 42.17591 | -83.23543 | 8408 ft | 309 kts | 45° |
| 2026-04-21 17:47 | 42.19110 | -83.21670 | 8273 ft | 288 kts | 30° |
| 2026-04-21 17:47 | 42.20732 | -83.20332 | 8184 ft | 262 kts | 24° |
| 2026-04-21 17:48 | 42.21763 | -83.19522 | 8110 ft | 259 kts | 24° |
| 2026-04-21 17:48 | 42.23852 | -83.17883 | 7888 ft | 259 kts | 23° |
| 2026-04-21 17:48 | 42.25433 | -83.16701 | 7265 ft | 261 kts | 22° |
| 2026-04-21 17:48 | 42.27045 | -83.15529 | 6592 ft | 264 kts | 23° |
| 2026-04-21 17:49 | 42.28673 | -83.14440 | 5906 ft | 262 kts | 13° |
| 2026-04-21 17:49 | 42.30434 | -83.14117 | 5229 ft | 253 kts | 348° |
| 2026-04-21 17:49 | 42.32030 | -83.14715 | 4578 ft | 241 kts | 325° |
| 2026-04-21 17:49 | 42.33306 | -83.16065 | 4026 ft | 225 kts | 303° |
| 2026-04-21 17:50 | 42.34038 | -83.17737 | 3897 ft | 197 kts | 285° |
| 2026-04-21 17:50 | 42.34319 | -83.19436 | 3787 ft | 176 kts | 268° |
| 2026-04-21 17:50 | 42.34237 | -83.20975 | 3651 ft | 156 kts | 256° |
| 2026-04-21 17:50 | 42.33914 | -83.22252 | 3527 ft | 132 kts | 245° |
| 2026-04-21 17:51 | 42.33499 | -83.23285 | 3385 ft | 120 kts | 242° |
| 2026-04-21 17:51 | 42.33109 | -83.24251 | 3255 ft | 114 kts | 241° |
| 2026-04-21 17:51 | 42.32696 | -83.25169 | 3169 ft | 116 kts | 233° |
| 2026-04-21 17:51 | 42.32104 | -83.25905 | 2990 ft | 116 kts | 217° |
| 2026-04-21 17:52 | 42.31418 | -83.26425 | 2831 ft | 114 kts | 211° |
| 2026-04-21 17:52 | 42.30722 | -83.26940 | 2655 ft | 111 kts | 210° |
| 2026-04-21 17:52 | 42.30048 | -83.27438 | 2519 ft | 112 kts | 208° |
| 2026-04-21 17:52 | 42.29358 | -83.27948 | 2368 ft | 113 kts | 209° |
| 2026-04-21 17:53 | 42.28674 | -83.28454 | 2228 ft | 112 kts | 207° |
| 2026-04-21 17:53 | 42.27991 | -83.28959 | 2060 ft | 111 kts | 206° |
| 2026-04-21 17:53 | 42.27306 | -83.29464 | 1915 ft | 111 kts | 209° |
| 2026-04-21 17:53 | 42.26629 | -83.29966 | 1749 ft | 112 kts | 210° |
| 2026-04-21 17:54 | 42.25947 | -83.30474 | 1615 ft | 112 kts | 206° |
| 2026-04-21 17:54 | 42.25256 | -83.30979 | 1449 ft | 111 kts | 207° |
| 2026-04-21 17:54 | 42.24580 | -83.31479 | 1272 ft | 112 kts | 207° |
| 2026-04-21 17:54 | 42.23898 | -83.31988 | 1116 ft | 111 kts | 208° |
| 2026-04-21 17:55 | 42.23217 | -83.32483 | 979 ft | 112 kts | 206° |
| 2026-04-21 17:55 | 42.22540 | -83.32987 | 794 ft | 111 kts | 206° |
| 2026-04-21 17:55 | 42.21866 | -83.33485 | 671 ft | 110 kts | 206° |
| 2026-04-21 17:55 | 42.21265 | -83.33925 | 647 ft | 81 kts | 209° |
| 2026-04-21 17:56 | 42.20930 | -83.34173 | 646 ft | 30 kts | 209° |
| 2026-04-21 17:56 | 42.20801 | -83.34268 | 646 ft | 20 kts | 208° |
| 2026-04-21 17:56 | 42.20689 | -83.34368 | 646 ft | 19 kts | 218° |
| 2026-04-21 17:56 | 42.20603 | -83.34491 | 647 ft | 19 kts | 234° |
| 2026-04-21 17:57 | 42.20580 | -83.34539 | 649 ft | 3 kts | 238° |
| 2026-04-21 17:57 | 42.20560 | -83.34582 | 648 ft | 8 kts | 238° |
| 2026-04-21 17:57 | 42.20523 | -83.34660 | 649 ft | 12 kts | 237° |
| 2026-04-21 17:57 | 42.20462 | -83.34768 | 649 ft | 16 kts | 218° |
| 2026-04-21 17:58 | 42.20356 | -83.34850 | 648 ft | 19 kts | 208° |
| 2026-04-21 17:58 | 42.20297 | -83.34891 | 648 ft | 11 kts | 206° |
| 2026-04-21 17:58 | 42.20222 | -83.34948 | 648 ft | 14 kts | 211° |
| 2026-04-21 17:58 | 42.20180 | -83.35066 | 648 ft | 17 kts | 271° |
| 2026-04-21 17:59 | 42.20178 | -83.35249 | 648 ft | 22 kts | 267° |
| 2026-04-21 17:59 | 42.20172 | -83.35470 | 648 ft | 25 kts | 267° |
| 2026-04-21 17:59 | 42.20168 | -83.35701 | 647 ft | 15 kts | 270° |
| 2026-04-21 17:59 | 42.20166 | -83.35864 | 647 ft | 20 kts | 267° |
| 2026-04-21 18:00 | 42.20190 | -83.36009 | 647 ft | 15 kts | 335° |
| 2026-04-21 18:00 | 42.20289 | -83.36004 | 647 ft | 15 kts | 22° |
| 2026-04-21 18:00 | 42.20379 | -83.35936 | 647 ft | 15 kts | 29° |
| 2026-04-21 18:00 | 42.20470 | -83.35867 | 647 ft | 11 kts | 28° |
| 2026-04-21 18:01 | 42.20503 | -83.35881 | 648 ft | 5 kts | 298° |
| 2026-04-21 18:01 | 42.20520 | -83.35929 | 647 ft | 6 kts | 297° |
| 2026-04-21 18:01 | 42.20526 | -83.35946 | 647 ft | 1 kts | 297° |
| 2026-04-21 18:01 | 42.20529 | -83.35954 | 648 ft | 1 kts | 297° |
| 2026-04-21 18:02 | 42.20533 | -83.35962 | 647 ft | 2 kts | 297° |
| 2026-04-21 18:02 | 42.20533 | -83.35963 | 647 ft | 0 kts | 297° |